Time;durP1;ratioP1;P1;durP2;ratioP2;P2;SDS_P1;SDS_P2;PMS_P1;PMS_P2;Temp;Humidity;BMP_temperature;BMP_pressure;BME280_temperature;BME280_humidity;BME280_pressure;Samples;Min_cycle;Max_cycle;Signal;HPM_P1;HPM_P2
2021/06/27 00:00:42;;;;;;;1135.93;624.50;;;;;;;13.92;nan;101996.69;5008696;28;20116;-73
2021/06/27 00:03:10;;;;;;;8.35;4.45;;;;;;;13.91;nan;102003.13;5007337;28;20017;-73
2021/06/27 00:05:37;;;;;;;62.17;49.08;;;;;;;13.86;nan;102001.16;4991076;28;20040;-73
2021/06/27 00:08:04;;;;;;;47.88;27.77;;;;;;;13.87;nan;102004.69;5013603;28;20376;-73
2021/06/27 00:10:39;;;;;;;6.93;4.65;;;;;;;13.78;nan;101987.25;5009449;28;20026;-74
2021/06/27 00:13:05;;;;;;;8.85;4.65;;;;;;;13.79;nan;101996.97;5005663;28;20033;-74
2021/06/27 00:15:40;;;;;;;7.90;4.57;;;;;;;13.71;nan;101994.66;4990321;28;20029;-73
2021/06/27 00:18:08;;;;;;;6.68;4.78;;;;;;;13.66;nan;101992.69;4990593;28;20441;-73
2021/06/27 00:20:35;;;;;;;7.40;4.90;;;;;;;13.60;nan;102002.50;4990921;28;20033;-73
2021/06/27 00:23:02;;;;;;;5.80;4.38;;;;;;;13.55;nan;101996.22;4993748;28;20026;-74
2021/06/27 00:25:30;;;;;;;6.53;4.15;;;;;;;13.50;nan;102002.31;5003899;28;20026;-73
2021/06/27 00:27:57;;;;;;;5.05;3.95;;;;;;;13.46;nan;101993.03;5010029;28;20030;-73
2021/06/27 00:30:24;;;;;;;4.50;3.72;;;;;;;13.42;nan;101996.47;5006908;28;20059;-73
2021/06/27 00:32:50;;;;;;;673.30;413.95;;;;;;;13.38;nan;101993.44;5006219;28;20030;-74
2021/06/27 00:35:18;;;;;;;22.92;12.95;;;;;;;13.33;nan;101993.31;5007812;28;20055;-73
2021/06/27 00:37:44;;;;;;;7.75;4.38;;;;;;;13.30;nan;101991.09;5005970;28;20504;-73
2021/06/27 00:40:13;;;;;;;7.35;4.03;;;;;;;13.29;nan;101986.78;5008407;28;20395;-73
2021/06/27 00:42:38;;;;;;;5.45;3.95;;;;;;;13.25;nan;101993.66;5003757;28;20037;-73
2021/06/27 00:45:07;;;;;;;7.47;4.15;;;;;;;13.19;nan;101989.22;5006324;28;20133;-73
2021/06/27 00:47:35;;;;;;;6.05;3.88;;;;;;;13.13;nan;101995.53;5003129;28;20038;-73
2021/06/27 00:50:02;;;;;;;9.57;4.80;;;;;;;13.08;nan;101990.00;5007529;28;20029;-73
2021/06/27 00:52:27;;;;;;;30.55;6.72;;;;;;;13.04;nan;101986.16;5006442;28;20117;-73
2021/06/27 00:54:53;;;;;;;17.80;6.70;;;;;;;13.00;nan;101985.81;5010148;28;20172;-73
2021/06/27 00:57:20;;;;;;;11.93;6.43;;;;;;;12.96;nan;101990.03;5002787;28;20113;-73
2021/06/27 00:59:46;;;;;;;39.85;27.50;;;;;;;12.89;nan;101984.75;5012316;28;20025;-73
2021/06/27 01:02:12;;;;;;;25.80;6.25;;;;;;;12.83;nan;101982.19;4983978;28;20017;-74
2021/06/27 01:04:38;;;;;;;23.10;5.93;;;;;;;12.76;nan;101976.94;5009703;28;20017;-73
2021/06/27 01:07:06;;;;;;;14.13;5.78;;;;;;;12.76;nan;101974.22;5011487;28;20138;-73
2021/06/27 01:09:32;;;;;;;8.63;5.45;;;;;;;12.68;nan;101971.88;5009882;28;20045;-74
2021/06/27 01:11:59;;;;;;;8.43;5.40;;;;;;;12.62;nan;101984.38;5008456;28;20036;-74
2021/06/27 01:14:25;;;;;;;10.50;6.10;;;;;;;12.57;nan;101978.06;5008870;28;20036;-73
2021/06/27 01:16:51;;;;;;;14.93;9.93;;;;;;;12.50;nan;101971.97;5014962;28;20189;-74
2021/06/27 01:19:16;;;;;;;12.70;6.75;;;;;;;12.47;nan;101969.75;5009145;28;20021;-74
2021/06/27 01:21:42;;;;;;;16.73;10.07;;;;;;;12.46;nan;101976.16;5012919;28;20045;-73
2021/06/27 01:24:08;;;;;;;28.20;15.85;;;;;;;12.40;nan;101964.47;5003187;28;20123;-73
2021/06/27 01:26:34;;;;;;;9.15;5.38;;;;;;;12.34;nan;101963.50;5012113;28;20037;-74
2021/06/27 01:29:00;;;;;;;9.50;5.10;;;;;;;12.27;nan;101968.19;4989260;28;20029;-75
2021/06/27 01:31:26;;;;;;;6.85;4.90;;;;;;;12.16;nan;101960.88;5003091;28;20496;-75
2021/06/27 01:33:52;;;;;;;7.30;5.65;;;;;;;12.13;nan;101964.03;4986026;28;20116;-73
2021/06/27 01:36:18;;;;;;;10.23;5.80;;;;;;;12.10;nan;101959.13;4990252;28;20488;-73
2021/06/27 01:38:44;;;;;;;8.55;5.85;;;;;;;12.04;nan;101952.00;5008230;28;20032;-75
2021/06/27 01:41:09;;;;;;;8.95;5.72;;;;;;;12.00;nan;101958.84;4990753;28;20395;-74
2021/06/27 01:43:35;;;;;;;13.05;7.43;;;;;;;11.93;nan;101944.69;5011565;28;20013;-73
2021/06/27 01:46:02;;;;;;;10.30;6.63;;;;;;;11.87;nan;101948.31;5008390;28;20026;-75
2021/06/27 01:48:29;;;;;;;11.50;6.20;;;;;;;11.82;nan;101948.13;5008392;28;20022;-74
2021/06/27 01:50:57;;;;;;;10.38;6.90;;;;;;;11.75;nan;101943.66;5008652;28;20156;-73
2021/06/27 01:53:26;;;;;;;10.77;6.47;;;;;;;11.72;nan;101944.13;5010172;28;20674;-74
2021/06/27 01:56:04;;;;;;;10.57;6.63;;;;;;;11.66;nan;101950.38;5006504;28;20022;-73
2021/06/27 01:58:47;;;;;;;10.45;6.43;;;;;;;11.57;nan;101946.38;5005696;28;20117;-73
2021/06/27 02:01:23;;;;;;;10.00;6.80;;;;;;;11.53;nan;101945.19;4995147;28;20111;-74
2021/06/27 02:03:50;;;;;;;9.18;6.57;;;;;;;11.55;nan;101951.16;4992448;28;20087;-74
2021/06/27 02:06:17;;;;;;;9.13;6.00;;;;;;;11.50;nan;101961.75;5011425;28;20077;-73
2021/06/27 02:08:43;;;;;;;9.45;6.22;;;;;;;11.48;nan;101953.06;5008107;28;20025;-74
2021/06/27 02:11:12;;;;;;;12.60;6.70;;;;;;;11.41;nan;101949.66;5012300;28;20442;-75
2021/06/27 02:13:38;;;;;;;10.95;7.13;;;;;;;11.37;nan;101948.47;5008783;28;20022;-74
2021/06/27 02:16:06;;;;;;;8.38;6.13;;;;;;;11.33;nan;101955.34;5010473;28;20065;-74
2021/06/27 02:18:36;;;;;;;10.38;6.82;;;;;;;11.30;nan;101956.56;5008701;28;20136;-74
2021/06/27 02:21:08;;;;;;;13.27;6.45;;;;;;;11.25;nan;101955.59;4996854;28;20416;-73
2021/06/27 02:23:34;;;;;;;12.20;7.55;;;;;;;11.22;nan;101950.69;5007714;28;20022;-74
2021/06/27 02:26:01;;;;;;;16.30;7.07;;;;;;;11.20;nan;101951.75;5007762;28;20103;-74
2021/06/27 02:28:27;;;;;;;12.73;7.60;;;;;;;11.16;nan;101949.72;5009262;28;20025;-74
2021/06/27 02:30:53;;;;;;;13.43;7.90;;;;;;;11.12;nan;101938.59;5008930;28;20099;-74
2021/06/27 02:33:20;;;;;;;14.15;7.53;;;;;;;11.15;nan;101938.19;5011006;28;20034;-74
2021/06/27 02:35:46;;;;;;;11.45;7.28;;;;;;;11.14;nan;101936.53;5007736;28;20055;-73
2021/06/27 02:38:12;;;;;;;12.77;7.55;;;;;;;11.15;nan;101940.03;4990222;28;20389;-73
2021/06/27 02:40:40;;;;;;;13.57;7.50;;;;;;;11.14;nan;101941.09;4993405;28;20036;-73
2021/06/27 02:43:06;;;;;;;9.75;7.00;;;;;;;11.20;nan;101941.00;5012014;28;20479;-74
2021/06/27 02:45:32;;;;;;;9.30;6.28;;;;;;;11.18;nan;101947.66;5003297;28;20050;-73
2021/06/27 02:47:58;;;;;;;9.48;6.72;;;;;;;11.12;nan;101948.50;5007882;28;20479;-74
2021/06/27 02:50:23;;;;;;;10.85;6.97;;;;;;;11.08;nan;101950.81;5005581;28;20034;-73
2021/06/27 02:52:49;;;;;;;10.68;7.43;;;;;;;11.05;nan;101942.41;5009583;28;20185;-74
2021/06/27 02:55:15;;;;;;;12.77;7.80;;;;;;;11.03;nan;101948.00;5008840;28;20050;-74
2021/06/27 02:57:41;;;;;;;10.65;5.80;;;;;;;11.03;nan;101942.63;5007834;28;20033;-73
2021/06/27 03:00:14;;;;;;;8.77;5.60;;;;;;;10.97;nan;101942.72;4989698;28;20130;-73
2021/06/27 03:02:40;;;;;;;11.45;6.45;;;;;;;10.91;nan;101941.72;4991137;28;20029;-73
2021/06/27 03:05:07;;;;;;;8.48;5.97;;;;;;;10.87;nan;101932.47;5005254;28;20030;-74
2021/06/27 03:07:32;;;;;;;14.68;5.70;;;;;;;10.80;nan;101929.88;5010690;28;20116;-74
2021/06/27 03:09:58;;;;;;;14.50;7.18;;;;;;;10.80;nan;101934.41;5010000;28;20644;-74
2021/06/27 03:12:23;;;;;;;16.90;7.20;;;;;;;10.83;nan;101928.59;5006847;28;20075;-73
2021/06/27 03:14:49;;;;;;;10.75;7.88;;;;;;;10.89;nan;101933.88;4990094;28;20634;-73
2021/06/27 03:17:14;;;;;;;13.48;8.77;;;;;;;10.94;nan;101930.53;5008004;28;20029;-75
2021/06/27 03:19:40;;;;;;;14.75;8.90;;;;;;;11.04;nan;101932.72;5009683;28;20026;-73
2021/06/27 03:22:05;;;;;;;15.60;10.23;;;;;;;11.01;nan;101931.31;5009248;28;20434;-74
2021/06/27 03:24:31;;;;;;;13.63;8.60;;;;;;;11.12;nan;101941.28;5008601;28;20059;-73
2021/06/27 03:26:57;;;;;;;11.23;8.00;;;;;;;11.24;nan;101936.00;5004169;28;20396;-73
2021/06/27 03:29:22;;;;;;;15.13;7.45;;;;;;;11.39;nan;101930.28;5008940;28;20017;-73
2021/06/27 03:31:48;;;;;;;12.73;7.20;;;;;;;11.50;nan;101932.22;5007367;28;20042;-74
2021/06/27 03:34:13;;;;;;;10.13;6.95;;;;;;;11.51;nan;101933.84;5009708;28;20022;-75
2021/06/27 03:36:39;;;;;;;12.98;7.32;;;;;;;11.50;nan;101929.53;5006776;28;20034;-73
2021/06/27 03:39:07;;;;;;;10.05;7.55;;;;;;;11.50;nan;101924.16;5009830;28;20117;-75
2021/06/27 03:41:40;;;;;;;11.18;7.10;;;;;;;11.47;nan;101930.78;4989573;28;20061;-75
2021/06/27 03:44:06;;;;;;;10.48;7.72;;;;;;;11.47;nan;101940.69;5009035;28;20084;-73
2021/06/27 03:46:32;;;;;;;16.30;7.88;;;;;;;11.45;nan;101937.41;5008623;28;20125;-73
2021/06/27 03:48:57;;;;;;;17.13;8.25;;;;;;;11.46;nan;101942.56;4989776;28;20032;-73
2021/06/27 03:51:23;;;;;;;11.77;8.43;;;;;;;11.50;nan;101940.28;5006654;28;20021;-73
2021/06/27 03:53:49;;;;;;;14.15;7.85;;;;;;;11.57;nan;101945.53;5006646;28;20542;-75
2021/06/27 03:56:16;;;;;;;14.18;8.00;;;;;;;11.60;nan;101945.91;5005092;28;20044;-73
2021/06/27 03:58:41;;;;;;;10.30;7.25;;;;;;;11.62;nan;101941.13;5005633;28;20029;-75
2021/06/27 04:01:07;;;;;;;13.95;8.23;;;;;;;11.59;nan;101944.28;5008478;28;20102;-73
2021/06/27 04:03:32;;;;;;;15.48;8.18;;;;;;;11.67;nan;101946.66;5008071;28;20022;-74
2021/06/27 04:05:58;;;;;;;11.90;7.25;;;;;;;11.73;nan;101953.81;5007463;28;20073;-73
2021/06/27 04:08:23;;;;;;;10.55;7.68;;;;;;;11.77;nan;101952.31;5003726;28;20030;-74
2021/06/27 04:10:49;;;;;;;12.18;7.43;;;;;;;11.82;nan;101943.59;5008544;28;20944;-73
2021/06/27 04:13:14;;;;;;;11.85;7.50;;;;;;;11.85;nan;101937.78;5005713;28;20080;-74
2021/06/27 04:15:40;;;;;;;11.60;6.65;;;;;;;11.87;nan;101942.94;4990473;28;20030;-73
2021/06/27 04:18:09;;;;;;;11.15;7.55;;;;;;;11.88;nan;101942.69;5007290;28;20125;-73
2021/06/27 04:20:34;;;;;;;12.82;8.25;;;;;;;11.89;nan;101946.19;4992193;28;20107;-73
2021/06/27 04:23:00;;;;;;;11.68;7.65;;;;;;;11.90;nan;101945.97;5007624;28;20647;-74
2021/06/27 04:25:25;;;;;;;15.27;7.82;;;;;;;11.93;nan;101945.50;4994056;28;20139;-73
2021/06/27 04:27:51;;;;;;;12.65;8.30;;;;;;;11.93;nan;101952.75;4987204;28;20037;-74
2021/06/27 04:30:17;;;;;;;16.13;9.45;;;;;;;11.96;nan;101954.97;5008712;28;20029;-73
2021/06/27 04:32:43;;;;;;;14.55;8.85;;;;;;;11.98;nan;101956.38;4987890;28;20022;-73
2021/06/27 04:35:08;;;;;;;15.25;8.82;;;;;;;12.05;nan;101956.31;5008708;28;20026;-74
2021/06/27 04:37:36;;;;;;;14.73;9.20;;;;;;;12.14;nan;101952.25;5007195;28;20068;-74
2021/06/27 04:40:03;;;;;;;13.18;8.85;;;;;;;12.21;nan;101952.97;5013574;28;20116;-73
2021/06/27 04:42:29;;;;;;;15.73;8.90;;;;;;;12.31;nan;101955.91;5010603;28;20025;-73
2021/06/27 04:44:54;;;;;;;17.50;9.70;;;;;;;12.47;nan;101946.38;5008656;28;20040;-73
2021/06/27 04:47:20;;;;;;;13.50;8.40;;;;;;;12.61;nan;101955.03;5007549;28;20111;-74
2021/06/27 04:49:45;;;;;;;13.57;8.70;;;;;;;12.77;nan;101953.53;5007175;28;20018;-74
2021/06/27 04:52:11;;;;;;;13.70;8.35;;;;;;;12.89;nan;101954.34;4998647;28;20034;-75
2021/06/27 04:54:37;;;;;;;14.60;9.13;;;;;;;13.01;nan;101957.84;4997763;28;20497;-73
2021/06/27 04:57:04;;;;;;;12.07;8.27;;;;;;;13.18;nan;101963.38;4992899;28;21925;-73
2021/06/27 04:59:30;;;;;;;14.95;8.10;;;;;;;13.33;nan;101965.59;5009416;28;20025;-73
2021/06/27 05:01:55;;;;;;;12.90;8.65;;;;;;;13.53;nan;101960.63;5011208;28;20033;-74
2021/06/27 05:04:21;;;;;;;12.98;8.75;;;;;;;13.66;nan;101962.25;5006699;28;20036;-74
2021/06/27 05:06:46;;;;;;;12.88;8.48;;;;;;;13.59;nan;101965.88;5010533;28;20061;-73
2021/06/27 05:09:12;;;;;;;11.23;8.68;;;;;;;13.86;nan;101965.31;5010489;28;20084;-73
2021/06/27 05:11:37;;;;;;;12.40;8.63;;;;;;;14.09;nan;101957.13;5006560;28;20396;-73
2021/06/27 05:14:03;;;;;;;12.27;8.25;;;;;;;14.28;nan;101951.53;5009348;28;20068;-74
2021/06/27 05:16:28;;;;;;;11.48;8.77;;;;;;;14.43;nan;101951.78;5011913;28;20039;-75
2021/06/27 05:18:54;;;;;;;17.23;8.38;;;;;;;14.64;nan;101963.75;5008965;28;20435;-73
2021/06/27 05:21:19;;;;;;;11.80;8.52;;;;;;;14.80;nan;101961.06;4991647;28;20060;-75
2021/06/27 05:23:45;;;;;;;13.90;8.88;;;;;;;14.91;nan;101959.34;5009826;28;20017;-74
2021/06/27 05:26:10;;;;;;;11.73;7.40;;;;;;;15.10;nan;101962.59;5008873;28;20492;-75
2021/06/27 05:28:36;;;;;;;10.88;8.40;;;;;;;15.27;nan;101960.66;5010630;28;20152;-73
2021/06/27 05:31:01;;;;;;;10.88;7.63;;;;;;;15.41;nan;101958.38;5011045;28;20038;-75
2021/06/27 05:33:27;;;;;;;10.18;7.28;;;;;;;15.54;nan;101957.19;5011121;28;20048;-75
2021/06/27 05:35:52;;;;;;;10.18;7.57;;;;;;;15.53;nan;101960.97;5009103;28;20037;-73
2021/06/27 05:38:18;;;;;;;10.35;7.32;;;;;;;15.45;nan;101961.41;5014027;28;20104;-73
2021/06/27 05:40:43;;;;;;;9.65;7.05;;;;;;;15.61;nan;101961.38;4993698;28;20018;-75
2021/06/27 05:43:09;;;;;;;12.05;7.63;;;;;;;15.60;nan;101970.53;4996236;28;20076;-73
2021/06/27 05:45:34;;;;;;;11.00;8.15;;;;;;;15.60;nan;101961.63;4994684;28;20057;-74
2021/06/27 05:48:00;;;;;;;13.98;7.10;;;;;;;15.67;nan;101964.97;4991256;28;20037;-74
2021/06/27 05:50:25;;;;;;;12.27;7.50;;;;;;;15.64;nan;101960.88;5011150;28;20041;-73
2021/06/27 05:52:51;;;;;;;11.15;7.93;;;;;;;15.47;nan;101967.38;5011377;28;20036;-75
2021/06/27 05:55:17;;;;;;;11.25;8.23;;;;;;;15.53;nan;101963.66;5011022;28;20121;-73
2021/06/27 05:57:43;;;;;;;11.35;8.35;;;;;;;15.58;nan;101966.44;5009665;28;20357;-74
2021/06/27 06:00:09;;;;;;;10.93;8.57;;;;;;;15.48;nan;101971.72;4994410;28;20030;-74
2021/06/27 06:02:34;;;;;;;9.13;7.03;;;;;;;15.75;nan;101975.31;5008489;28;20038;-73
2021/06/27 06:05:00;;;;;;;10.98;8.07;;;;;;;15.90;nan;101972.78;4996165;28;20052;-73
2021/06/27 06:07:26;;;;;;;11.55;7.85;;;;;;;16.12;nan;101980.03;5008782;28;20026;-74
2021/06/27 06:09:51;;;;;;;10.68;7.88;;;;;;;16.33;nan;101976.44;4996021;28;20030;-73
2021/06/27 06:12:16;;;;;;;11.55;7.93;;;;;;;16.50;nan;101973.63;5009966;28;20496;-74
2021/06/27 06:14:42;;;;;;;10.65;7.65;;;;;;;16.80;nan;101978.50;5010222;28;20030;-73
2021/06/27 06:17:08;;;;;;;9.73;7.00;;;;;;;17.01;nan;101971.31;4987946;28;20025;-74
2021/06/27 06:19:33;;;;;;;12.93;7.10;;;;;;;17.31;nan;101979.63;5009175;28;20040;-75
2021/06/27 06:21:59;;;;;;;10.65;7.63;;;;;;;17.40;nan;101978.03;5007084;28;20033;-73
2021/06/27 06:24:24;;;;;;;11.68;8.35;;;;;;;17.65;nan;101963.81;5009576;28;20018;-73
2021/06/27 06:26:50;;;;;;;9.55;7.63;;;;;;;17.87;nan;101960.09;5009022;28;20595;-73
2021/06/27 06:29:16;;;;;;;10.80;7.38;;;;;;;17.94;nan;101966.88;4993148;28;20060;-74
2021/06/27 06:31:41;;;;;;;10.88;7.53;;;;;;;17.96;nan;101966.66;5003679;28;20018;-73
2021/06/27 06:34:07;;;;;;;13.10;8.48;;;;;;;18.01;nan;101972.06;5004761;28;20113;-75
2021/06/27 06:36:32;;;;;;;11.60;6.85;;;;;;;18.09;nan;101963.41;5008329;28;20473;-74
2021/06/27 06:38:58;;;;;;;10.43;6.53;;;;;;;18.10;nan;101970.44;5011163;28;20033;-74
2021/06/27 06:41:24;;;;;;;9.57;6.10;;;;;;;18.17;nan;101965.59;5010122;28;20567;-74
2021/06/27 06:43:50;;;;;;;7.40;6.25;;;;;;;18.38;nan;101967.25;5005742;28;20037;-74
2021/06/27 06:46:15;;;;;;;8.30;5.95;;;;;;;18.32;nan;101968.31;5008859;28;20021;-74
2021/06/27 06:48:41;;;;;;;6.68;5.45;;;;;;;18.66;nan;101965.06;4986430;28;20040;-73
2021/06/27 06:51:07;;;;;;;8.63;5.45;;;;;;;18.89;nan;101961.00;5007753;28;20492;-74
2021/06/27 06:53:33;;;;;;;6.65;5.68;;;;;;;19.10;nan;101957.16;5006222;28;20034;-74
2021/06/27 06:55:58;;;;;;;7.57;5.70;;;;;;;19.38;nan;101960.31;5009308;28;20021;-73
2021/06/27 06:58:28;;;;;;;6.88;5.07;;;;;;;19.51;nan;101957.81;5005252;28;20105;-73
2021/06/27 07:00:54;;;;;;;6.95;5.03;;;;;;;19.83;nan;101953.88;5009805;28;20025;-73
2021/06/27 07:03:20;;;;;;;7.80;5.28;;;;;;;20.08;nan;101958.34;5005403;28;20079;-73
2021/06/27 07:05:45;;;;;;;8.38;4.65;;;;;;;20.36;nan;101951.34;5005280;28;20030;-73
2021/06/27 07:08:11;;;;;;;5.97;4.82;;;;;;;20.40;nan;101952.38;5008989;28;20029;-73
2021/06/27 07:10:36;;;;;;;5.78;4.57;;;;;;;20.48;nan;101949.91;5007903;28;20029;-74
2021/06/27 07:13:02;;;;;;;6.50;4.32;;;;;;;20.53;nan;101949.06;5003078;28;20037;-73
2021/06/27 07:15:27;;;;;;;4.10;3.60;;;;;;;20.88;nan;101945.19;5009164;28;20148;-74
2021/06/27 07:17:53;;;;;;;6.90;4.32;;;;;;;21.12;nan;101937.00;5006041;28;20577;-73
2021/06/27 07:20:18;;;;;;;4.90;4.18;;;;;;;21.46;nan;101947.00;4992644;28;20022;-73
2021/06/27 07:22:44;;;;;;;6.45;4.10;;;;;;;21.67;nan;101946.44;4990438;28;20025;-73
2021/06/27 07:25:10;;;;;;;8.35;4.28;;;;;;;21.64;nan;101948.94;4991337;28;20495;-73
2021/06/27 07:27:37;;;;;;;4.97;3.95;;;;;;;21.94;nan;101945.78;5010670;28;20058;-73
2021/06/27 07:30:06;;;;;;;5.40;3.70;;;;;;;22.14;nan;101950.16;4988622;28;20038;-73
2021/06/27 07:32:31;;;;;;;5.78;4.50;;;;;;;22.31;nan;101942.22;5006210;28;20025;-73
2021/06/27 07:34:57;;;;;;;4.82;3.72;;;;;;;22.46;nan;101941.19;5008582;28;20607;-74
2021/06/27 07:37:22;;;;;;;4.72;3.70;;;;;;;22.31;nan;101931.31;5011037;28;20029;-73
2021/06/27 07:39:47;;;;;;;4.53;3.30;;;;;;;22.59;nan;101940.38;5004755;28;20029;-74
2021/06/27 07:42:13;;;;;;;5.55;3.45;;;;;;;22.61;nan;101937.34;5005894;28;20616;-73
2021/06/27 07:44:38;;;;;;;4.32;3.55;;;;;;;22.85;nan;101929.84;5005708;28;20022;-74
2021/06/27 07:47:04;;;;;;;4.25;3.15;;;;;;;23.21;nan;101929.94;5010545;28;20026;-74
2021/06/27 07:49:30;;;;;;;5.15;3.85;;;;;;;22.86;nan;101933.38;5008134;28;21918;-73
2021/06/27 07:51:55;;;;;;;5.30;3.75;;;;;;;23.31;nan;101928.09;5007263;28;20034;-73
2021/06/27 07:54:21;;;;;;;4.53;3.70;;;;;;;23.36;nan;101933.50;5007027;28;20029;-74
2021/06/27 07:56:46;;;;;;;3.65;2.92;;;;;;;23.60;nan;101928.63;5003512;28;20038;-73
2021/06/27 07:59:14;;;;;;;3.83;3.05;;;;;;;23.76;nan;101932.63;5005965;28;20021;-74
2021/06/27 08:01:40;;;;;;;3.35;2.80;;;;;;;23.54;nan;101934.47;4988784;28;20480;-73
2021/06/27 08:04:05;;;;;;;4.13;3.00;;;;;;;23.77;nan;101917.81;5004640;28;20032;-74
2021/06/27 08:06:31;;;;;;;3.40;2.97;;;;;;;23.96;nan;101919.59;4986997;28;20045;-74
2021/06/27 08:08:56;;;;;;;4.90;3.03;;;;;;;24.13;nan;101916.97;5000570;28;20037;-75
2021/06/27 08:11:22;;;;;;;4.38;2.60;;;;;;;23.94;nan;101921.84;5006237;28;20037;-73
2021/06/27 08:13:48;;;;;;;2.40;2.20;;;;;;;24.07;nan;101915.50;5003615;28;20117;-76
2021/06/27 08:16:14;;;;;;;6.03;3.05;;;;;;;24.32;nan;101920.38;4979682;28;20610;-73
2021/06/27 08:18:39;;;;;;;5.32;3.55;;;;;;;24.52;nan;101920.97;5000714;28;20725;-73
2021/06/27 08:21:05;;;;;;;6.40;2.90;;;;;;;24.41;nan;101920.41;4978484;28;20065;-74
2021/06/27 08:23:30;;;;;;;4.28;3.15;;;;;;;24.71;nan;101913.31;5004052;28;20400;-75
2021/06/27 08:25:56;;;;;;;5.70;2.70;;;;;;;24.65;nan;101907.19;5000132;28;20035;-73
2021/06/27 08:28:21;;;;;;;3.95;2.60;;;;;;;24.73;nan;101899.31;5002048;28;20724;-74
2021/06/27 08:30:47;;;;;;;2.75;2.55;;;;;;;24.85;nan;101903.06;5002820;28;20117;-74
2021/06/27 08:33:13;;;;;;;6.05;2.92;;;;;;;24.81;nan;101910.31;5004017;28;20056;-75
2021/06/27 08:35:38;;;;;;;3.47;2.92;;;;;;;24.54;nan;101913.22;5001931;28;20029;-75
2021/06/27 08:38:04;;;;;;;3.67;2.60;;;;;;;25.07;nan;101917.84;5004709;28;20610;-73
2021/06/27 08:40:30;;;;;;;5.38;3.15;;;;;;;24.90;nan;101911.16;5007900;28;20033;-76
2021/06/27 08:42:56;;;;;;;3.22;2.70;;;;;;;24.80;nan;101922.41;5003791;28;20073;-74
2021/06/27 08:45:23;;;;;;;8.20;3.60;;;;;;;24.78;nan;101908.22;4983944;28;20040;-75
2021/06/27 08:47:51;;;;;;;4.25;3.17;;;;;;;24.83;nan;101904.50;5001582;28;20038;-74
2021/06/27 08:50:17;;;;;;;5.07;4.03;;;;;;;24.74;nan;101903.66;4989069;28;20570;-74
2021/06/27 08:52:44;;;;;;;3.70;3.05;;;;;;;24.70;nan;101896.06;4999377;28;20052;-75
2021/06/27 08:55:10;;;;;;;6.40;3.70;;;;;;;25.08;nan;101898.34;5005854;28;20026;-75
2021/06/27 08:57:36;;;;;;;4.38;3.78;;;;;;;25.22;nan;101884.50;5000615;28;20026;-75
2021/06/27 09:00:04;;;;;;;4.53;3.47;;;;;;;25.77;nan;101884.75;4987501;28;20148;-75
2021/06/27 09:02:29;;;;;;;3.50;3.20;;;;;;;26.21;nan;101888.22;5003606;28;20040;-74
2021/06/27 09:04:55;;;;;;;4.38;3.70;;;;;;;26.09;nan;101885.38;5002310;28;20396;-74
2021/06/27 09:07:40;;;;;;;5.97;3.30;;;;;;;26.55;nan;101895.59;5000794;28;20515;-75
2021/06/27 09:10:17;;;;;;;5.30;3.78;;;;;;;26.92;nan;101884.94;5007758;28;20037;-74
2021/06/27 09:12:53;;;;;;;4.05;3.00;;;;;;;27.07;nan;101889.91;5000168;28;20044;-74
2021/06/27 09:15:37;;;;;;;4.85;3.35;;;;;;;26.40;nan;101891.47;4982592;28;20026;-75
2021/06/27 09:18:24;;;;;;;5.32;3.40;;;;;;;26.25;nan;101886.47;5005700;28;20030;-74
2021/06/27 09:20:57;;;;;;;4.10;3.40;;;;;;;27.15;nan;101889.06;4994856;28;20114;-74
2021/06/27 09:23:36;;;;;;;5.78;2.80;;;;;;;26.48;nan;101887.88;5001893;28;20053;-74
2021/06/27 09:26:01;;;;;;;2.97;2.53;;;;;;;26.82;nan;101891.63;4999992;28;20033;-73
2021/06/27 09:28:43;;;;;;;5.57;2.90;;;;;;;26.97;nan;101879.28;5005556;28;20157;-74
2021/06/27 09:31:09;;;;;;;4.68;3.20;;;;;;;26.36;nan;101882.25;4990343;28;20029;-73
2021/06/27 09:33:35;;;;;;;4.43;3.13;;;;;;;26.74;nan;101879.53;4985022;28;20369;-74
2021/06/27 09:36:11;;;;;;;4.65;2.83;;;;;;;26.54;nan;101879.44;5006675;28;20534;-74
2021/06/27 09:38:43;;;;;;;3.80;3.20;;;;;;;26.87;nan;101874.94;4992565;28;20025;-74
2021/06/27 09:41:16;;;;;;;3.88;3.00;;;;;;;27.56;nan;101873.72;5000645;28;20116;-74
2021/06/27 09:43:54;;;;;;;5.00;2.78;;;;;;;28.20;nan;101878.84;4997828;28;20031;-73
2021/06/27 09:46:35;;;;;;;4.50;3.38;;;;;;;27.69;nan;101873.47;4985278;28;20038;-74
2021/06/27 09:49:13;;;;;;;3.58;3.10;;;;;;;27.44;nan;101877.19;5000236;28;20563;-73
2021/06/27 09:51:50;;;;;;;5.45;3.25;;;;;;;28.07;nan;101869.72;5000986;28;20399;-74
2021/06/27 09:54:19;;;;;;;3.88;3.30;;;;;;;28.54;nan;101861.91;5003885;28;20080;-74
2021/06/27 09:56:45;;;;;;;4.78;2.95;;;;;;;28.69;nan;101862.38;5002142;28;20526;-73
2021/06/27 09:59:13;;;;;;;6.47;3.85;;;;;;;27.89;nan;101860.81;5001061;28;20061;-73
2021/06/27 10:01:40;;;;;;;5.47;3.30;;;;;;;26.93;nan;101859.06;4999870;28;20025;-73
2021/06/27 10:04:09;;;;;;;5.20;3.25;;;;;;;27.08;nan;101850.25;5002843;28;20034;-73
2021/06/27 10:06:47;;;;;;;3.70;3.08;;;;;;;27.77;nan;101862.72;5001241;28;20041;-74
2021/06/27 10:09:20;;;;;;;4.95;2.90;;;;;;;28.54;nan;101850.88;5000020;28;20026;-73
2021/06/27 10:12:04;;;;;;;3.72;2.55;;;;;;;29.29;nan;101852.47;5000908;28;20062;-74
2021/06/27 10:14:59;;;;;;;5.07;2.30;;;;;;;29.60;nan;101840.78;5003424;28;20033;-73
2021/06/27 10:17:27;;;;;;;3.17;2.78;;;;;;;29.24;nan;101844.44;4984334;28;20335;-74
2021/06/27 10:19:54;;;;;;;7.68;3.22;;;;;;;29.71;nan;101834.41;5002831;28;20588;-74
2021/06/27 10:22:21;;;;;;;2.92;2.60;;;;;;;29.75;nan;101843.59;5003206;28;20453;-74
2021/06/27 10:24:47;;;;;;;2.90;2.60;;;;;;;29.40;nan;101837.03;5003743;28;20117;-73
2021/06/27 10:27:13;;;;;;;3.65;2.75;;;;;;;29.70;nan;101830.03;5002583;28;20104;-74
2021/06/27 10:29:42;;;;;;;4.13;3.05;;;;;;;29.91;nan;101829.81;4983493;28;20038;-74
2021/06/27 10:32:08;;;;;;;3.63;2.33;;;;;;;29.87;nan;101825.38;4990250;28;20029;-74
2021/06/27 10:34:36;;;;;;;3.40;2.50;;;;;;;29.08;nan;101842.38;4996030;28;20069;-74
2021/06/27 10:37:27;;;;;;;2.70;2.50;;;;;;;29.54;nan;101831.16;5004125;28;20026;-74
2021/06/27 10:40:05;;;;;;;4.47;3.13;;;;;;;29.55;nan;101828.03;5003030;28;20022;-75
2021/06/27 10:42:49;;;;;;;4.32;2.60;;;;;;;29.99;nan;101828.06;5000774;28;20034;-74
2021/06/27 10:45:19;;;;;;;3.77;2.70;;;;;;;29.57;nan;101834.00;5005260;28;20040;-73
2021/06/27 10:47:45;;;;;;;4.40;3.00;;;;;;;29.99;nan;101822.53;5002984;28;20428;-74
2021/06/27 10:50:12;;;;;;;2.90;2.67;;;;;;;29.91;nan;101817.97;5004649;28;20025;-73
2021/06/27 10:52:56;;;;;;;5.38;2.60;;;;;;;29.09;nan;101832.97;4999412;28;20084;-73
2021/06/27 10:55:25;;;;;;;3.00;2.70;;;;;;;29.00;nan;101828.72;4997815;28;20026;-74
2021/06/27 10:58:07;;;;;;;3.45;3.08;;;;;;;28.68;nan;101822.16;5004541;28;20025;-74
2021/06/27 11:00:57;;;;;;;3.85;3.42;;;;;;;29.25;nan;101819.22;5002168;28;20064;-73
2021/06/27 11:03:34;;;;;;;5.68;3.25;;;;;;;29.59;nan;101828.94;5002139;28;20028;-73
2021/06/27 11:06:02;;;;;;;4.57;3.35;;;;;;;29.42;nan;101821.72;5006254;28;20120;-73
2021/06/27 11:08:43;;;;;;;4.72;3.50;;;;;;;29.42;nan;101820.91;5005581;28;20624;-73
2021/06/27 11:11:20;;;;;;;5.18;3.28;;;;;;;29.77;nan;101827.47;5003327;28;20119;-74
2021/06/27 11:14:07;;;;;;;3.83;3.20;;;;;;;29.55;nan;101828.03;4987033;28;20032;-73
2021/06/27 11:16:59;;;;;;;3.03;2.75;;;;;;;29.09;nan;101821.94;5002404;28;20026;-73
2021/06/27 11:19:34;;;;;;;6.47;3.47;;;;;;;29.66;nan;101815.34;4987304;28;20068;-73
2021/06/27 11:22:20;;;;;;;3.22;2.70;;;;;;;29.27;nan;101816.16;5001184;28;20037;-74
2021/06/27 11:24:54;;;;;;;4.85;3.10;;;;;;;29.68;nan;101803.94;4979318;28;20029;-73
2021/06/27 11:27:36;;;;;;;3.73;3.17;;;;;;;30.03;nan;101806.84;4997590;28;20118;-73
2021/06/27 11:30:26;;;;;;;3.47;3.05;;;;;;;30.20;nan;101809.31;4992612;28;20089;-72
2021/06/27 11:32:52;;;;;;;3.78;2.63;;;;;;;31.00;nan;101812.78;4999249;28;20029;-73
2021/06/27 11:35:39;;;;;;;6.32;2.90;;;;;;;31.15;nan;101812.75;4997819;28;20048;-74
2021/06/27 11:38:05;;;;;;;3.33;2.70;;;;;;;31.03;nan;101818.41;4981126;28;20713;-74
2021/06/27 11:40:46;;;;;;;3.58;3.08;;;;;;;31.27;nan;101820.16;5001312;28;20030;-73